createdAt,value
2018-01-26T00:02:15.039Z,90.00
2018-01-26T00:04:42.592Z,89.00
2018-01-26T00:07:10.890Z,89.00
2018-01-26T00:09:38.496Z,88.90
2018-01-26T00:12:06.098Z,89.00
2018-01-26T00:14:34.402Z,89.30
2018-01-26T00:17:02.327Z,89.30
2018-01-26T00:19:30.680Z,89.30
2018-01-26T00:21:58.514Z,89.20
2018-01-26T00:24:26.065Z,88.40
2018-01-26T00:26:53.596Z,88.70
2018-01-26T00:29:21.343Z,88.60
2018-01-26T00:31:48.923Z,88.60
2018-01-26T00:34:16.524Z,88.50
2018-01-26T00:36:44.045Z,88.80
2018-01-26T00:39:11.594Z,88.50
2018-01-26T00:41:39.224Z,88.90
2018-01-26T00:44:06.961Z,88.80
2018-01-26T00:46:34.476Z,88.50
2018-01-26T00:49:02.035Z,89.00
2018-01-26T00:51:29.653Z,88.80
2018-01-26T00:53:57.457Z,88.10
2018-01-26T00:56:25.085Z,88.00
2018-01-26T00:58:52.803Z,87.80
2018-01-26T01:01:21.632Z,87.50
2018-01-26T01:03:49.748Z,87.50
2018-01-26T01:06:17.395Z,87.40
2018-01-26T01:08:44.915Z,87.10
2018-01-26T01:11:12.488Z,87.10
2018-01-26T01:13:40.153Z,86.00
2018-01-26T01:16:07.843Z,86.20
2018-01-26T01:18:35.843Z,86.40
2018-01-26T01:21:03.395Z,85.40
2018-01-26T01:23:31.167Z,85.40
2018-01-26T01:25:58.704Z,86.00
2018-01-26T01:28:26.279Z,86.00
2018-01-26T01:30:54.020Z,85.10
2018-01-26T01:33:22.325Z,84.10
2018-01-26T01:35:50.818Z,85.40
2018-01-26T01:38:19.105Z,85.90
2018-01-26T01:40:47.384Z,85.50
2018-01-26T01:43:15.694Z,85.00
2018-01-26T01:45:43.373Z,85.00
2018-01-26T01:48:11.926Z,85.40
2018-01-26T01:50:39.651Z,84.70
2018-01-26T01:53:07.950Z,85.30
2018-01-26T01:55:35.613Z,86.00
2018-01-26T01:58:04.014Z,85.80
2018-01-26T02:00:31.717Z,85.10
2018-01-26T02:02:59.334Z,85.50
2018-01-26T02:05:26.900Z,85.60
2018-01-26T02:07:54.629Z,85.60
2018-01-26T02:10:22.660Z,85.60
2018-01-26T02:12:50.238Z,85.80
2018-01-26T02:15:17.754Z,86.10
2018-01-26T02:17:45.523Z,85.90
2018-01-26T02:20:13.063Z,86.10
2018-01-26T02:22:40.895Z,85.60
2018-01-26T02:25:09.017Z,85.40
2018-01-26T02:27:37.206Z,85.90
2018-01-26T02:30:04.738Z,86.10
2018-01-26T02:32:32.300Z,86.20
2018-01-26T02:35:00.767Z,86.40
2018-01-26T02:37:29.113Z,86.50
2018-01-26T02:39:57.889Z,86.50
2018-01-26T02:42:25.532Z,87.00
2018-01-26T02:44:53.075Z,87.00
2018-01-26T02:47:20.661Z,87.30
2018-01-26T02:49:48.890Z,86.80
2018-01-26T02:52:16.453Z,86.70
2018-01-26T02:54:44.234Z,87.40
2018-01-26T02:57:11.828Z,87.10
2018-01-26T02:59:39.398Z,87.20
2018-01-26T03:02:06.991Z,87.40
2018-01-26T03:04:34.592Z,87.70
2018-01-26T03:07:02.175Z,87.70
2018-01-26T03:09:29.907Z,87.00
2018-01-26T03:11:57.650Z,87.20
2018-01-26T03:14:25.192Z,87.70
2018-01-26T03:16:53.643Z,89.10
2018-01-26T03:19:21.352Z,89.60
2018-01-26T03:21:49.059Z,88.70
2018-01-26T03:24:16.788Z,88.30
2018-01-26T03:26:44.324Z,90.00
2018-01-26T03:29:11.841Z,89.80
2018-01-26T03:31:39.432Z,90.10
2018-01-26T03:34:08.369Z,90.30
2018-01-26T03:36:36.297Z,90.60
2018-01-26T03:39:04.112Z,90.80
2018-01-26T03:41:31.663Z,90.50
2018-01-26T03:43:59.196Z,90.60
2018-01-26T03:46:27.596Z,91.30
2018-01-26T03:48:55.425Z,91.30
2018-01-26T03:51:23.848Z,91.30
2018-01-26T03:53:51.380Z,91.20
2018-01-26T03:56:19.207Z,90.90
2018-01-26T03:58:46.748Z,91.00
2018-01-26T04:01:14.290Z,91.30
2018-01-26T04:03:42.535Z,90.90
2018-01-26T04:06:11.512Z,90.80
2018-01-26T04:08:39.083Z,90.80
2018-01-26T04:11:06.792Z,90.90
2018-01-26T04:13:34.338Z,91.10
2018-01-26T04:16:01.883Z,91.20
2018-01-26T04:18:29.411Z,91.60
2018-01-26T04:20:57.835Z,91.10
2018-01-26T04:23:25.983Z,91.20
2018-01-26T04:25:53.552Z,91.50
2018-01-26T04:28:21.282Z,91.10
2018-01-26T04:30:48.817Z,91.10
2018-01-26T04:33:16.470Z,91.40
2018-01-26T04:35:44.004Z,91.30
2018-01-26T04:38:12.415Z,91.60
2018-01-26T04:40:40.143Z,91.60
2018-01-26T04:43:07.862Z,91.90
2018-01-26T04:45:35.394Z,92.20
2018-01-26T04:48:03.774Z,92.30
2018-01-26T04:50:32.253Z,91.50
2018-01-26T04:52:59.826Z,91.00
2018-01-26T04:55:27.547Z,90.70
2018-01-26T04:57:56.442Z,90.50
2018-01-26T05:00:24.003Z,90.50
2018-01-26T05:02:52.615Z,90.30
2018-01-26T05:05:20.276Z,90.30
2018-01-26T05:07:48.338Z,90.30
2018-01-26T05:10:16.031Z,90.50
2018-01-26T05:12:43.747Z,90.60
2018-01-26T05:15:12.778Z,90.50
2018-01-26T05:17:40.364Z,90.60
2018-01-26T05:20:07.921Z,90.50
2018-01-26T05:22:35.663Z,90.50
2018-01-26T05:25:03.210Z,90.30
2018-01-26T05:27:30.874Z,90.40
2018-01-26T05:29:58.459Z,90.20
2018-01-26T05:32:26.045Z,90.10
2018-01-26T05:34:54.497Z,89.90
2018-01-26T05:37:22.016Z,90.20
2018-01-26T05:39:50.400Z,90.30
2018-01-26T05:42:17.956Z,90.30
2018-01-26T05:44:45.690Z,90.00
2018-01-26T05:47:13.220Z,89.60
2018-01-26T05:49:40.763Z,90.00
2018-01-26T05:52:09.043Z,89.30
2018-01-26T05:54:36.715Z,90.30
2018-01-26T05:57:04.227Z,90.10
2018-01-26T05:59:32.566Z,89.80
2018-01-26T06:02:00.074Z,89.80
2018-01-26T06:04:27.633Z,90.30
2018-01-26T06:06:55.143Z,90.10
2018-01-26T06:09:23.292Z,89.70
2018-01-26T06:11:50.830Z,89.60
2018-01-26T06:14:19.049Z,89.90
2018-01-26T06:16:46.815Z,89.30
2018-01-26T06:19:14.646Z,89.30
2018-01-26T06:21:42.204Z,89.40
2018-01-26T06:24:09.915Z,89.40
2018-01-26T06:26:37.426Z,88.70
2018-01-26T06:29:04.950Z,89.10
2018-01-26T06:31:33.367Z,88.70
2018-01-26T06:34:01.407Z,88.70
2018-01-26T06:36:29.700Z,88.40
2018-01-26T06:38:57.332Z,88.40
2018-01-26T06:41:24.884Z,89.50
2018-01-26T06:43:52.814Z,89.30
2018-01-26T06:46:21.466Z,88.80
2018-01-26T06:48:50.402Z,88.90
2018-01-26T06:51:18.426Z,88.80
2018-01-26T06:53:46.707Z,87.70
2018-01-26T06:56:15.137Z,87.70
2018-01-26T06:58:42.701Z,87.80
2018-01-26T07:01:11.078Z,88.00
2018-01-26T07:03:39.084Z,88.00
2018-01-26T07:06:07.596Z,88.10
2018-01-26T07:08:35.266Z,88.10
2018-01-26T07:11:03.324Z,88.00
2018-01-26T07:13:31.594Z,88.10
2018-01-26T07:15:59.142Z,88.80
2018-01-26T07:18:27.434Z,88.50
2018-01-26T07:20:55.052Z,88.40
2018-01-26T07:23:22.899Z,88.00
2018-01-26T07:25:51.251Z,87.80
2018-01-26T07:28:18.870Z,87.40
2018-01-26T07:30:46.605Z,86.90
2018-01-26T07:33:14.168Z,87.10
2018-01-26T07:35:42.274Z,86.70
2018-01-26T07:38:10.344Z,86.70
2018-01-26T07:40:37.858Z,86.40
2018-01-26T07:43:05.935Z,86.20
2018-01-26T07:45:33.584Z,87.10
2018-01-26T07:48:01.283Z,87.40
2018-01-26T07:50:28.899Z,86.90
2018-01-26T07:52:56.778Z,86.80
2018-01-26T07:55:24.300Z,87.10
2018-01-26T07:57:51.993Z,86.50
2018-01-26T08:00:19.671Z,85.80
2018-01-26T08:02:47.682Z,85.40
2018-01-26T08:05:15.859Z,85.40
2018-01-26T08:07:44.589Z,85.50
2018-01-26T08:10:12.672Z,85.80
2018-01-26T08:12:40.238Z,85.50
2018-01-26T08:15:07.777Z,85.70
2018-01-26T08:17:35.392Z,85.50
2018-01-26T08:20:03.004Z,86.10
2018-01-26T08:22:30.620Z,86.00
2018-01-26T08:24:58.939Z,86.30
2018-01-26T08:27:26.614Z,85.50
2018-01-26T08:29:54.151Z,84.80
2018-01-26T08:32:22.051Z,84.90
2018-01-26T08:34:49.816Z,84.90
2018-01-26T08:37:18.776Z,85.60
2018-01-26T08:39:46.568Z,85.60
2018-01-26T08:42:14.144Z,84.80
2018-01-26T08:44:41.704Z,84.80
2018-01-26T08:47:09.542Z,84.20
2018-01-26T08:49:37.043Z,83.30
2018-01-26T08:52:04.590Z,83.20
2018-01-26T08:54:32.870Z,83.80
2018-01-26T08:57:00.457Z,83.60
2018-01-26T08:59:28.247Z,83.40
2018-01-26T09:01:55.820Z,83.60
2018-01-26T09:04:23.354Z,83.80
2018-01-26T09:06:52.624Z,83.30
2018-01-26T09:09:20.284Z,83.10
2018-01-26T09:11:48.346Z,83.40
2018-01-26T09:14:16.499Z,83.70
2018-01-26T09:16:44.083Z,83.50
2018-01-26T09:19:11.713Z,82.90
2018-01-26T09:21:39.447Z,82.80
2018-01-26T09:24:07.138Z,83.00
2018-01-26T09:26:34.657Z,83.20
2018-01-26T09:29:02.186Z,83.00
2018-01-26T09:31:29.701Z,82.90
2018-01-26T09:33:58.102Z,82.40
2018-01-26T09:36:26.023Z,82.70
2018-01-26T09:38:54.382Z,82.50
2018-01-26T09:41:21.924Z,82.50
2018-01-26T09:43:50.596Z,82.80
2018-01-26T09:46:18.471Z,82.70
2018-01-26T09:48:47.298Z,82.70
2018-01-26T09:51:29.324Z,82.80
2018-01-26T09:53:56.912Z,82.20
2018-01-26T09:56:24.688Z,82.20
2018-01-26T09:58:52.374Z,81.70
2018-01-26T10:01:20.177Z,81.90
2018-01-26T10:03:49.486Z,82.50
2018-01-26T10:06:17.069Z,82.50
2018-01-26T10:08:44.729Z,83.20
2018-01-26T10:11:12.367Z,83.40
2018-01-26T10:13:40.264Z,84.60
2018-01-26T10:16:08.818Z,84.90
2018-01-26T10:18:36.536Z,86.30
2018-01-26T10:21:04.851Z,86.80
2018-01-26T10:23:33.773Z,88.20
2018-01-26T10:26:01.526Z,87.60
2018-01-26T10:28:29.227Z,88.10
2018-01-26T10:30:56.887Z,88.30
2018-01-26T10:33:25.125Z,88.50
2018-01-26T10:35:52.690Z,88.80
2018-01-26T10:38:20.281Z,88.20
2018-01-26T10:40:48.082Z,88.30
2018-01-26T10:43:16.938Z,88.30
2018-01-26T10:45:45.344Z,87.60
2018-01-26T10:48:13.141Z,87.20
2018-01-26T10:50:40.790Z,88.20
2018-01-26T10:53:08.385Z,87.70
2018-01-26T10:55:36.122Z,87.90
2018-01-26T10:58:04.891Z,87.90
2018-01-26T11:00:33.671Z,88.90
2018-01-26T11:03:01.287Z,88.20
2018-01-26T11:05:28.929Z,89.00
2018-01-26T11:07:56.789Z,88.30
2018-01-26T11:10:24.586Z,89.20
2018-01-26T11:12:53.082Z,87.90
2018-01-26T11:15:20.941Z,87.80
2018-01-26T11:17:50.710Z,88.20
2018-01-26T11:20:19.159Z,87.30
2018-01-26T11:22:48.631Z,87.30
2018-01-26T11:25:16.845Z,86.20
2018-01-26T11:27:45.674Z,85.70
2018-01-26T11:30:13.604Z,85.60
2018-01-26T11:32:41.257Z,85.80
2018-01-26T11:35:08.955Z,85.40
2018-01-26T11:37:37.261Z,84.00
2018-01-26T11:40:04.825Z,84.50
2018-01-26T11:42:32.387Z,84.10
2018-01-26T11:45:00.026Z,83.90
2018-01-26T11:47:28.098Z,83.70
2018-01-26T11:49:56.834Z,83.40
2018-01-26T11:52:25.930Z,83.60
2018-01-26T11:54:53.534Z,83.40
2018-01-26T11:57:21.126Z,82.90
2018-01-26T11:59:48.732Z,82.10
2018-01-26T12:02:17.361Z,81.00
2018-01-26T12:04:45.110Z,80.90
2018-01-26T12:07:13.510Z,81.10
2018-01-26T12:09:42.532Z,80.10
2018-01-26T12:12:10.166Z,80.20
2018-01-26T12:14:37.829Z,80.50
2018-01-26T12:17:05.419Z,80.10
2018-01-26T12:19:32.952Z,79.40
2018-01-26T12:22:01.121Z,79.00
2018-01-26T12:24:28.982Z,79.00
2018-01-26T12:26:56.788Z,79.80
2018-01-26T12:29:24.337Z,79.30
2018-01-26T12:31:51.938Z,80.00
2018-01-26T12:34:19.534Z,79.80
2018-01-26T12:36:47.201Z,79.30
2018-01-26T12:39:14.888Z,79.60
2018-01-26T12:41:42.806Z,79.50
2018-01-26T12:44:10.456Z,79.20
2018-01-26T12:46:38.292Z,78.60
2018-01-26T12:49:05.919Z,79.20
2018-01-26T12:51:33.632Z,79.00
2018-01-26T12:54:01.213Z,79.10
2018-01-26T12:56:28.825Z,79.40
2018-01-26T12:58:56.453Z,79.80
2018-01-26T13:01:24.491Z,80.20
2018-01-26T13:03:53.048Z,80.30
2018-01-26T13:06:20.611Z,79.50
2018-01-26T13:08:48.799Z,79.90
2018-01-26T13:11:16.404Z,80.30
2018-01-26T13:13:44.038Z,80.00
2018-01-26T13:16:11.703Z,80.00
2018-01-26T13:18:40.135Z,80.00
2018-01-26T13:21:07.741Z,79.90
2018-01-26T13:23:35.326Z,80.60
2018-01-26T13:26:03.104Z,80.50
2018-01-26T13:28:30.896Z,80.10
2018-01-26T13:30:58.696Z,80.10
2018-01-26T13:33:27.207Z,82.50
2018-01-26T13:35:54.897Z,82.40
2018-01-26T13:38:23.489Z,82.00
2018-01-26T13:40:51.162Z,82.00
2018-01-26T13:43:19.131Z,81.40
2018-01-26T13:45:46.861Z,81.20
2018-01-26T13:48:14.885Z,80.80
2018-01-26T13:50:42.898Z,80.90
2018-01-26T13:53:10.470Z,79.60
2018-01-26T13:55:38.169Z,80.30
2018-01-26T13:58:06.489Z,80.10
2018-01-26T14:00:34.082Z,80.10
2018-01-26T14:03:01.620Z,80.30
2018-01-26T14:05:29.162Z,80.00
2018-01-26T14:07:56.710Z,79.80
2018-01-26T14:10:25.125Z,79.10
2018-01-26T14:12:52.646Z,79.00
2018-01-26T14:15:20.985Z,78.10
2018-01-26T14:17:49.074Z,78.10
2018-01-26T14:20:16.689Z,78.00
2018-01-26T14:22:44.465Z,78.70
2018-01-26T14:25:12.174Z,78.40
2018-01-26T14:27:39.689Z,77.90
2018-01-26T14:30:07.354Z,78.20
2018-01-26T14:32:34.922Z,78.50
2018-01-26T14:35:02.463Z,78.10
2018-01-26T14:37:30.308Z,78.20
2018-01-26T14:39:59.328Z,78.60
2018-01-26T14:42:27.555Z,78.40
2018-01-26T14:44:55.181Z,78.00
2018-01-26T14:47:22.822Z,78.00
2018-01-26T14:49:50.353Z,77.70
2018-01-26T14:52:18.700Z,77.60
2018-01-26T14:54:46.307Z,77.60
2018-01-26T14:57:13.913Z,77.20
2018-01-26T14:59:41.539Z,77.70
2018-01-26T15:02:09.118Z,78.30
2018-01-26T15:04:37.602Z,78.60
2018-01-26T15:07:05.205Z,78.50
2018-01-26T15:09:32.774Z,78.30
2018-01-26T15:12:00.368Z,78.40
2018-01-26T15:14:28.064Z,78.80
2018-01-26T15:16:56.097Z,79.20
2018-01-26T15:19:25.273Z,79.30
2018-01-26T15:21:53.601Z,79.60
2018-01-26T15:24:21.247Z,79.60
2018-01-26T15:26:49.749Z,80.60
2018-01-26T15:29:17.476Z,79.90
2018-01-26T15:31:45.203Z,80.00
2018-01-26T15:34:14.193Z,80.20
2018-01-26T15:36:43.166Z,80.20
2018-01-26T15:39:11.403Z,80.10
2018-01-26T15:41:39.094Z,80.70
2018-01-26T15:44:06.872Z,80.80
2018-01-26T15:46:34.486Z,80.80
2018-01-26T15:49:02.230Z,80.90
2018-01-26T15:51:29.967Z,81.00
2018-01-26T15:53:57.527Z,81.10
2018-01-26T15:56:25.181Z,81.00
2018-01-26T15:58:52.789Z,81.30
2018-01-26T16:01:20.470Z,81.00
2018-01-26T16:03:48.182Z,81.00
2018-01-26T16:06:16.461Z,81.60
2018-01-26T16:08:44.046Z,81.90
2018-01-26T16:11:11.631Z,83.60
2018-01-26T16:13:39.171Z,84.00
2018-01-26T16:16:06.730Z,84.30
2018-01-26T16:18:35.043Z,84.50
2018-01-26T16:21:02.765Z,84.40
2018-01-26T16:23:30.624Z,85.00
2018-01-26T16:25:59.651Z,85.10
2018-01-26T16:28:27.338Z,85.10
2018-01-26T16:30:55.433Z,84.90
2018-01-26T16:33:23.763Z,84.80
2018-01-26T16:35:51.298Z,84.80
2018-01-26T16:38:19.771Z,85.10
2018-01-26T16:40:49.279Z,85.00
2018-01-26T16:43:16.957Z,85.00
2018-01-26T16:45:46.501Z,85.20
2018-01-26T16:48:14.360Z,85.20
2018-01-26T16:50:41.884Z,85.30
2018-01-26T16:53:09.895Z,85.00
2018-01-26T16:55:38.046Z,84.90
2018-01-26T16:58:05.600Z,84.90
2018-01-26T17:00:34.390Z,84.80
2018-01-26T17:03:01.895Z,84.70
2018-01-26T17:05:29.533Z,84.90
2018-01-26T17:07:57.153Z,84.80
2018-01-26T17:10:26.034Z,85.00
2018-01-26T17:12:56.203Z,85.10
2018-01-26T17:15:23.787Z,85.10
2018-01-26T17:17:51.472Z,85.10
2018-01-26T17:20:19.154Z,84.90
2018-01-26T17:22:46.842Z,85.00
2018-01-26T17:25:14.752Z,85.00
2018-01-26T17:27:42.494Z,84.80
2018-01-26T17:30:10.233Z,84.70
2018-01-26T17:32:37.848Z,84.90
2018-01-26T17:35:05.458Z,84.90
2018-01-26T17:37:33.019Z,85.10
2018-01-26T17:40:00.691Z,85.20
2018-01-26T17:42:29.119Z,84.90
2018-01-26T17:44:57.005Z,84.50
2018-01-26T17:47:24.605Z,84.50
2018-01-26T17:49:52.405Z,84.30
2018-01-26T17:52:20.002Z,84.20
2018-01-26T17:54:48.079Z,84.10
2018-01-26T17:57:15.760Z,84.20
2018-01-26T17:59:43.317Z,84.10
2018-01-26T18:02:11.212Z,84.10
2018-01-26T18:04:39.038Z,84.10
2018-01-26T18:07:06.697Z,83.00
2018-01-26T18:09:34.240Z,83.90
2018-01-26T18:12:02.359Z,82.60
2018-01-26T18:14:29.954Z,82.50
2018-01-26T18:16:57.766Z,82.60
2018-01-26T18:19:25.460Z,82.60
2018-01-26T18:21:53.023Z,82.90
2018-01-26T18:24:20.991Z,82.60
2018-01-26T18:26:49.313Z,82.50
2018-01-26T18:29:16.869Z,82.00
2018-01-26T18:31:45.322Z,82.90
2018-01-26T18:34:12.866Z,81.80
2018-01-26T18:36:40.625Z,81.90
2018-01-26T18:39:08.175Z,81.80
2018-01-26T18:41:35.933Z,81.70
2018-01-26T18:44:03.664Z,81.90
2018-01-26T18:46:32.091Z,83.00
2018-01-26T18:49:00.271Z,83.00
2018-01-26T18:51:27.844Z,82.70
2018-01-26T18:53:56.262Z,81.60
2018-01-26T18:56:24.359Z,81.40
2018-01-26T18:58:51.889Z,81.60
2018-01-26T19:01:19.641Z,81.20
2018-01-26T19:03:47.197Z,81.40
2018-01-26T19:06:15.658Z,81.30
2018-01-26T19:08:43.179Z,81.30
2018-01-26T19:11:10.787Z,81.40
2018-01-26T19:13:38.383Z,82.10
2018-01-26T19:16:05.963Z,82.50
2018-01-26T19:18:33.705Z,82.40
2018-01-26T19:21:01.299Z,82.60
2018-01-26T19:23:28.893Z,82.80
2018-01-26T19:25:56.658Z,82.90
2018-01-26T19:28:26.352Z,83.00
2018-01-26T19:30:54.640Z,82.90
2018-01-26T19:33:22.202Z,82.80
2018-01-26T19:35:49.855Z,83.10
2018-01-26T19:38:17.378Z,83.20
2018-01-26T19:40:45.743Z,83.20
2018-01-26T19:43:13.259Z,83.00
2018-01-26T19:45:41.100Z,83.00
2018-01-26T19:48:08.740Z,83.10
2018-01-26T19:50:36.255Z,82.50
2018-01-26T19:53:03.906Z,82.50
2018-01-26T19:55:32.168Z,82.40
2018-01-26T19:58:00.815Z,82.50
2018-01-26T20:00:28.363Z,82.70
2018-01-26T20:02:56.768Z,82.70
2018-01-26T20:05:42.175Z,82.70
2018-01-26T20:08:29.567Z,83.00
2018-01-26T20:10:58.370Z,82.90
2018-01-26T20:13:28.246Z,82.60
2018-01-26T20:15:56.268Z,82.30
2018-01-26T20:18:23.987Z,82.50
2018-01-26T20:20:52.328Z,82.50
2018-01-26T20:23:19.910Z,82.50
2018-01-26T20:25:49.139Z,82.90
2018-01-26T20:28:16.816Z,82.90
2018-01-26T20:30:44.567Z,82.70
2018-01-26T20:33:12.159Z,83.10
2018-01-26T20:35:39.788Z,82.60
2018-01-26T20:38:08.070Z,82.80
2018-01-26T20:40:35.706Z,83.20
2018-01-26T20:43:03.603Z,83.30
2018-01-26T20:45:31.174Z,83.50
2018-01-26T20:47:58.760Z,83.40
2018-01-26T20:50:26.320Z,83.40
2018-01-26T20:52:53.916Z,83.30
2018-01-26T20:55:21.518Z,83.30
2018-01-26T20:57:50.190Z,83.30
2018-01-26T21:00:17.887Z,83.30
2018-01-26T21:02:45.398Z,83.20
2018-01-26T21:05:13.183Z,82.90
2018-01-26T21:07:41.509Z,83.00
2018-01-26T21:10:09.037Z,83.20
2018-01-26T21:12:36.540Z,83.30
2018-01-26T21:15:04.277Z,83.10
2018-01-26T21:17:31.801Z,83.30
2018-01-26T21:19:59.513Z,83.20
2018-01-26T21:22:28.618Z,82.90
2018-01-26T21:24:56.945Z,83.00
2018-01-26T21:27:24.800Z,83.00
2018-01-26T21:29:52.482Z,83.00
2018-01-26T21:32:20.047Z,83.00
2018-01-26T21:34:47.563Z,82.80
2018-01-26T21:37:15.198Z,82.80
2018-01-26T21:39:44.179Z,82.50
2018-01-26T21:42:12.509Z,82.80
2018-01-26T21:44:40.144Z,82.80
2018-01-26T21:47:08.574Z,83.00
2018-01-26T21:49:36.230Z,83.00
2018-01-26T21:52:04.245Z,82.90
2018-01-26T21:54:32.650Z,83.40
2018-01-26T21:57:00.242Z,83.00
2018-01-26T21:59:27.926Z,82.90
2018-01-26T22:01:56.405Z,82.90
2018-01-26T22:04:24.676Z,82.80
2018-01-26T22:06:58.161Z,81.40
2018-01-26T22:09:25.834Z,82.50
2018-01-26T22:11:53.378Z,82.90
2018-01-26T22:14:21.701Z,82.40
2018-01-26T22:16:49.513Z,82.40
2018-01-26T22:19:17.052Z,82.20
2018-01-26T22:21:45.687Z,82.50
2018-01-26T22:24:13.207Z,82.40
2018-01-26T22:26:40.846Z,82.30
2018-01-26T22:29:09.199Z,82.90
2018-01-26T22:31:37.706Z,82.90
2018-01-26T22:34:05.519Z,83.00
2018-01-26T22:36:33.151Z,84.10
2018-01-26T22:39:01.305Z,83.90
2018-01-26T22:41:29.706Z,83.80
2018-01-26T22:43:57.267Z,83.80
2018-01-26T22:46:24.831Z,83.60
2018-01-26T22:48:52.466Z,83.80
2018-01-26T22:51:20.396Z,83.40
2018-01-26T22:53:47.995Z,83.40
2018-01-26T22:56:15.553Z,83.30
2018-01-26T22:58:43.294Z,83.10
2018-01-26T23:01:11.256Z,82.80
2018-01-26T23:03:39.611Z,82.90
2018-01-26T23:06:08.443Z,82.80
2018-01-26T23:08:36.124Z,82.90
2018-01-26T23:11:04.431Z,83.40
2018-01-26T23:13:32.306Z,83.40
2018-01-26T23:16:00.392Z,83.30
2018-01-26T23:18:29.090Z,83.60
2018-01-26T23:20:56.770Z,82.90
2018-01-26T23:23:24.443Z,82.90
2018-01-26T23:25:52.227Z,82.90
2018-01-26T23:28:19.881Z,82.90
2018-01-26T23:30:47.809Z,82.60
2018-01-26T23:33:16.098Z,82.70
2018-01-26T23:35:44.036Z,83.10
2018-01-26T23:38:11.643Z,82.90
2018-01-26T23:40:40.242Z,82.70
2018-01-26T23:43:08.755Z,83.40
2018-01-26T23:45:36.305Z,83.30
2018-01-26T23:48:04.492Z,83.30
2018-01-26T23:50:32.976Z,83.20
2018-01-26T23:53:00.543Z,83.00
2018-01-26T23:55:28.163Z,82.90
2018-01-26T23:57:56.473Z,82.60
